createdAt,value
2023-04-17T00:01:05.613Z,3.40
2023-04-17T00:06:55.485Z,2.80
2023-04-17T00:15:46.511Z,3.97
2023-04-17T00:21:28.001Z,3.00
2023-04-17T00:24:32.667Z,2.97
2023-04-17T00:30:19.537Z,3.40
2023-04-17T00:36:06.393Z,3.58
2023-04-17T00:41:53.157Z,3.10
2023-04-17T00:53:11.121Z,2.42
2023-04-17T00:58:47.896Z,3.08
2023-04-17T01:01:38.684Z,3.40
2023-04-17T01:07:25.131Z,3.40
2023-04-17T01:13:11.595Z,2.90
2023-04-17T01:18:58.027Z,2.80
2023-04-17T01:24:44.688Z,3.45
2023-04-17T01:33:43.943Z,2.78
2023-04-17T01:39:24.941Z,2.72
2023-04-17T01:45:07.131Z,3.30
2023-04-17T01:50:48.179Z,3.10
2023-04-17T01:59:31.333Z,3.28
2023-04-17T02:05:17.979Z,3.42
2023-04-17T02:11:07.060Z,3.45
2023-04-17T02:16:55.754Z,3.28
2023-04-17T02:19:30.541Z,3.65
2023-04-17T02:25:37.976Z,3.92
2023-04-17T02:31:21.191Z,4.20
2023-04-17T02:34:28.807Z,4.03
2023-04-17T02:40:15.804Z,3.67
2023-04-17T02:49:16.265Z,3.58
2023-04-17T02:54:58.521Z,4.30
2023-04-17T03:00:40.887Z,4.13
2023-04-17T03:06:23.637Z,4.38
2023-04-17T03:09:37.137Z,4.10
2023-04-17T03:15:23.852Z,4.05
2023-04-17T03:21:12.736Z,4.63
2023-04-17T03:27:00.022Z,5.00
2023-04-17T03:29:29.765Z,4.72
2023-04-17T03:35:13.817Z,4.05
2023-04-17T03:40:57.713Z,3.90
2023-04-17T03:46:40.793Z,4.57
2023-04-17T03:49:31.591Z,4.43
2023-04-17T04:01:23.986Z,4.15
2023-04-17T04:04:29.089Z,4.50
2023-04-17T04:10:12.105Z,4.68
2023-04-17T04:15:53.362Z,4.50
2023-04-17T04:21:37.530Z,5.50
2023-04-17T04:24:31.956Z,4.93
2023-04-17T04:30:18.837Z,5.90
2023-04-17T04:36:08.185Z,5.18
2023-04-17T04:41:55.117Z,4.93
2023-04-17T07:10:17.484Z,8.50
2023-04-17T07:13:06.554Z,8.40
2023-04-17T07:16:12.588Z,7.82
2023-04-17T07:21:59.305Z,7.53
2023-04-17T07:24:29.396Z,7.55
2023-04-17T07:27:24.923Z,7.43
2023-04-17T07:41:26.319Z,6.80
2023-04-17T07:44:29.136Z,7.50
2023-04-17T07:50:05.330Z,6.47
2023-04-17T11:28:23.891Z,10.05
2023-04-17T11:31:01.649Z,10.07
2023-04-17T14:18:07.802Z,7.05
2023-04-17T14:20:36.366Z,7.28
2023-04-17T14:23:16.037Z,6.28
2023-04-17T14:25:59.750Z,7.38
2023-04-17T14:32:39.824Z,6.07
2023-04-17T14:57:23.083Z,6.25
2023-04-17T15:09:43.336Z,6.75
2023-04-17T15:12:11.929Z,6.88
2023-04-17T15:14:54.034Z,5.95
2023-04-17T15:21:02.612Z,5.80
2023-04-17T15:23:44.592Z,5.82
2023-04-17T15:26:17.765Z,5.85
2023-04-17T15:29:00.182Z,6.00
2023-04-17T15:31:39.310Z,6.03
2023-04-17T15:34:08.733Z,6.10
2023-04-17T15:36:38.800Z,6.28
2023-04-17T15:39:42.893Z,5.88
2023-04-17T15:42:15.378Z,6.18
2023-04-17T15:44:56.929Z,5.82
2023-04-17T15:50:08.265Z,5.80
2023-04-17T15:52:36.389Z,6.25
2023-04-17T15:55:06.066Z,5.82
2023-04-17T15:57:34.480Z,5.68
2023-04-17T16:00:04.655Z,6.35
2023-04-17T16:02:33.384Z,6.43
2023-04-17T16:05:01.925Z,5.88
2023-04-17T16:07:30.190Z,5.60
2023-04-17T16:09:59.042Z,6.05
2023-04-17T16:12:31.110Z,6.18
2023-04-17T16:15:00.364Z,6.32
2023-04-17T16:17:39.597Z,6.20
2023-04-17T16:20:23.527Z,5.72
2023-04-17T16:22:51.649Z,5.93
2023-04-17T16:25:28.025Z,5.28
2023-04-17T16:28:01.070Z,6.25
2023-04-17T16:30:32.172Z,5.70
2023-04-17T16:33:00.803Z,7.00
2023-04-17T16:35:38.159Z,5.70
2023-04-17T16:38:07.604Z,5.55
2023-04-17T16:40:43.649Z,6.65
2023-04-17T16:43:18.740Z,5.63
2023-04-17T16:45:48.031Z,5.78
2023-04-17T16:48:18.347Z,6.05
2023-04-17T16:50:46.470Z,5.90
2023-04-17T16:53:15.477Z,5.40
2023-04-17T16:55:47.830Z,6.28
2023-04-17T16:58:17.845Z,6.50
2023-04-17T17:00:49.813Z,6.75
2023-04-17T17:03:24.968Z,7.28
2023-04-17T17:05:53.974Z,7.78
2023-04-17T17:08:36.454Z,8.20
2023-04-17T17:11:06.196Z,6.97
2023-04-17T17:13:34.150Z,7.18
2023-04-17T17:16:03.119Z,7.35
2023-04-17T17:18:43.699Z,7.00
2023-04-17T17:21:16.972Z,7.60
2023-04-17T17:23:57.050Z,8.57
2023-04-17T17:26:28.357Z,14.77
2023-04-17T17:28:57.363Z,8.57
2023-04-17T17:31:29.458Z,7.80
2023-04-17T17:34:20.762Z,8.05
2023-04-17T17:37:11.156Z,7.50
2023-04-17T17:42:57.389Z,9.00
2023-04-17T17:45:40.917Z,9.20
2023-04-17T17:48:14.282Z,8.25
2023-04-17T17:50:44.798Z,8.52
2023-04-17T17:53:29.835Z,9.13
2023-04-17T17:55:58.961Z,10.05
2023-04-17T17:58:49.021Z,9.50
2023-04-17T18:01:34.835Z,10.02
2023-04-17T18:04:10.384Z,10.00
2023-04-17T18:06:39.680Z,9.45
2023-04-17T18:09:20.956Z,16.33
2023-04-17T18:11:55.466Z,10.45
2023-04-17T18:14:24.596Z,7.18
2023-04-17T18:16:55.683Z,6.75
2023-04-17T18:19:29.772Z,7.20
2023-04-17T18:22:01.052Z,6.75
2023-04-17T18:24:29.298Z,7.32
2023-04-17T18:26:57.828Z,7.72
2023-04-17T18:29:25.988Z,6.55
2023-04-17T18:31:59.608Z,7.38
2023-04-17T18:34:36.727Z,6.95
2023-04-17T18:37:05.565Z,6.75
2023-04-17T18:39:35.793Z,7.13
2023-04-17T18:42:03.986Z,7.38
2023-04-17T18:44:38.998Z,7.65
2023-04-17T18:47:07.552Z,10.52
2023-04-17T18:49:40.327Z,10.15
2023-04-17T18:55:23.944Z,9.68
2023-04-17T18:57:52.461Z,8.55
2023-04-17T19:00:26.995Z,11.23
2023-04-17T19:02:57.321Z,9.32
2023-04-17T19:05:34.653Z,8.45
2023-04-17T19:08:20.137Z,9.45
2023-04-17T19:10:50.088Z,8.45
2023-04-17T19:13:53.137Z,26.27
2023-04-17T19:16:27.496Z,8.25
2023-04-17T19:19:06.640Z,6.28
2023-04-17T19:22:20.289Z,4.38
2023-04-17T19:24:54.035Z,4.88
2023-04-17T19:31:03.813Z,4.35
2023-04-17T19:33:33.617Z,4.57
2023-04-17T19:36:09.935Z,4.57
2023-04-17T19:38:38.053Z,5.15
2023-04-17T19:41:19.300Z,4.28
2023-04-17T19:43:48.015Z,4.43
2023-04-17T19:46:53.292Z,5.13
2023-04-17T19:49:22.408Z,6.95
2023-04-17T19:51:58.636Z,6.63
2023-04-17T19:57:47.297Z,5.63
2023-04-17T20:00:30.544Z,7.35
2023-04-17T20:03:01.207Z,8.82
2023-04-17T20:05:47.358Z,12.52
2023-04-17T20:08:27.981Z,8.55
2023-04-17T20:10:56.545Z,6.72
2023-04-17T20:13:27.620Z,5.95
2023-04-17T20:16:13.505Z,7.30
2023-04-17T20:19:21.455Z,7.57
2023-04-17T20:22:01.518Z,9.15
2023-04-17T20:24:32.245Z,11.80
2023-04-17T20:27:01.904Z,10.75
2023-04-17T20:29:37.477Z,12.02
2023-04-17T20:32:07.645Z,11.70
2023-04-17T20:34:43.651Z,9.65
2023-04-17T20:37:16.192Z,10.55
2023-04-17T20:40:12.812Z,9.80
2023-04-17T20:45:38.208Z,9.23
2023-04-17T20:48:13.295Z,9.13
2023-04-17T20:50:44.600Z,7.85
2023-04-17T20:53:13.802Z,7.72
2023-04-17T20:56:03.833Z,7.50
2023-04-17T20:59:04.215Z,7.65
2023-04-17T21:01:32.530Z,7.18
2023-04-17T21:04:05.926Z,6.57
2023-04-17T21:06:40.183Z,8.30
2023-04-17T21:09:10.238Z,7.88
2023-04-17T21:11:42.206Z,9.07
2023-04-17T21:14:10.673Z,8.32
2023-04-17T21:16:45.970Z,9.43
2023-04-17T21:20:14.385Z,8.95
2023-04-17T21:23:04.235Z,7.32
2023-04-17T21:25:33.793Z,6.63
2023-04-17T21:28:08.357Z,6.78
2023-04-17T21:30:38.501Z,7.07
2023-04-17T21:33:35.188Z,6.97
2023-04-17T21:36:03.605Z,6.97
2023-04-17T21:38:33.682Z,7.05
2023-04-17T21:41:06.409Z,6.13
2023-04-17T21:43:39.705Z,7.35
2023-04-17T21:46:29.437Z,8.50
2023-04-17T21:48:58.875Z,8.80
2023-04-17T21:51:35.664Z,9.23
2023-04-17T21:54:11.152Z,9.75
2023-04-17T21:56:42.460Z,9.50
2023-04-17T21:59:12.876Z,9.13
2023-04-17T22:01:51.037Z,8.48
2023-04-17T22:04:53.541Z,9.10
2023-04-17T22:07:55.947Z,9.00
2023-04-17T22:10:24.643Z,11.82
2023-04-17T22:13:08.219Z,8.52
2023-04-17T22:15:46.686Z,8.13
2023-04-17T22:21:28.244Z,10.60
2023-04-17T22:24:04.473Z,10.35
2023-04-17T22:26:34.819Z,10.38
2023-04-17T22:29:08.840Z,10.55
2023-04-17T22:31:46.560Z,10.35
2023-04-17T22:34:36.635Z,9.88
2023-04-17T22:37:16.159Z,9.73
2023-04-17T22:39:44.441Z,9.32
2023-04-17T22:42:42.377Z,11.15
2023-04-17T22:45:11.799Z,9.75
2023-04-17T22:47:42.502Z,10.38
2023-04-17T22:50:53.454Z,9.77
2023-04-17T22:53:24.552Z,10.77
2023-04-17T22:56:13.423Z,10.88
2023-04-17T22:58:42.289Z,11.00
2023-04-17T23:01:11.406Z,10.00
2023-04-17T23:03:43.782Z,10.02
2023-04-17T23:06:49.064Z,10.85
2023-04-17T23:09:22.283Z,10.38
2023-04-17T23:11:56.396Z,10.68
2023-04-17T23:14:36.777Z,8.98
2023-04-17T23:17:16.421Z,8.82
2023-04-17T23:19:46.468Z,8.23
2023-04-17T23:22:21.779Z,8.65
2023-04-17T23:24:57.938Z,8.63
2023-04-17T23:27:35.694Z,8.95
2023-04-17T23:30:03.818Z,9.25
2023-04-17T23:32:54.922Z,8.50
2023-04-17T23:35:27.274Z,8.35
2023-04-17T23:38:10.679Z,8.75
2023-04-17T23:40:40.145Z,8.23
2023-04-17T23:43:09.189Z,8.75
2023-04-17T23:45:39.199Z,8.10
2023-04-17T23:48:11.344Z,8.05
2023-04-17T23:50:45.693Z,8.18
2023-04-17T23:53:13.623Z,7.60
2023-04-17T23:55:45.805Z,8.07
2023-04-17T23:58:16.907Z,7.72
